createdAt,value
2022-10-20T00:04:17.344Z,6.67
2022-10-20T00:09:19.032Z,9.00
2022-10-20T00:14:20.773Z,7.20
2022-10-20T00:19:22.475Z,6.33
2022-10-20T00:24:24.261Z,7.30
2022-10-20T00:29:25.965Z,8.75
2022-10-20T00:34:27.785Z,9.10
2022-10-20T00:39:29.476Z,7.30
2022-10-20T00:44:58.599Z,6.60
2022-10-20T00:50:14.188Z,9.57
2022-10-20T00:55:22.365Z,8.10
2022-10-20T01:00:25.700Z,6.30
2022-10-20T01:05:28.254Z,8.18
2022-10-20T01:10:36.255Z,8.43
2022-10-20T01:16:01.162Z,9.05
2022-10-20T01:21:13.894Z,7.25
2022-10-20T01:26:34.340Z,7.80
2022-10-20T01:32:03.239Z,7.05
2022-10-20T01:37:48.575Z,8.57
2022-10-20T01:42:53.502Z,5.68
2022-10-20T01:47:56.814Z,8.63
2022-10-20T01:52:59.195Z,10.50
2022-10-20T01:58:38.947Z,7.32
2022-10-20T02:03:54.098Z,7.70
2022-10-20T02:09:14.398Z,9.00
2022-10-20T02:14:18.214Z,8.37
2022-10-20T02:19:23.581Z,7.13
2022-10-20T02:24:30.584Z,10.30
2022-10-20T02:29:39.286Z,7.97
2022-10-20T02:34:42.616Z,14.10
2022-10-20T02:39:44.464Z,7.97
2022-10-20T02:44:46.173Z,7.25
2022-10-20T02:49:48.387Z,10.02
2022-10-20T02:54:50.213Z,13.35
2022-10-20T02:59:52.247Z,6.93
2022-10-20T03:04:53.908Z,8.20
2022-10-20T03:09:55.639Z,8.10
2022-10-20T03:14:57.328Z,9.57
2022-10-20T03:19:59.058Z,8.05
2022-10-20T03:25:00.795Z,8.73
2022-10-20T03:30:02.455Z,9.07
2022-10-20T03:35:04.347Z,9.88
2022-10-20T03:40:06.673Z,10.95
2022-10-20T03:45:08.879Z,7.77
2022-10-20T03:50:10.585Z,6.95
2022-10-20T03:55:12.257Z,7.68
2022-10-20T04:00:14.146Z,7.72
2022-10-20T04:05:18.691Z,9.23
2022-10-20T04:10:20.352Z,8.90
2022-10-20T04:15:22.021Z,12.30
2022-10-20T04:20:23.772Z,11.68
2022-10-20T04:25:25.428Z,9.75
2022-10-20T04:30:27.132Z,8.77
2022-10-20T04:35:28.915Z,9.50
2022-10-20T04:40:30.677Z,7.03
2022-10-20T04:45:32.376Z,9.85
2022-10-20T04:50:34.048Z,8.20
2022-10-20T04:55:35.923Z,13.25
2022-10-20T05:00:38.873Z,9.85
2022-10-20T05:05:40.533Z,8.10
2022-10-20T05:10:42.202Z,10.30
2022-10-20T05:15:43.880Z,8.93
2022-10-20T05:21:07.383Z,8.57
2022-10-20T05:26:10.090Z,8.30
2022-10-20T05:31:11.917Z,7.60
2022-10-20T05:36:19.325Z,7.77
2022-10-20T05:41:26.288Z,10.80
2022-10-20T05:46:30.995Z,7.93
2022-10-20T05:51:35.666Z,11.00
2022-10-20T05:56:37.336Z,9.25
2022-10-20T06:01:39.604Z,7.05
2022-10-20T06:06:41.496Z,12.33
2022-10-20T06:11:43.271Z,8.97
2022-10-20T06:16:45.007Z,7.80
2022-10-20T06:21:48.893Z,11.83
2022-10-20T06:26:51.398Z,7.20
2022-10-20T06:31:55.350Z,7.53
2022-10-20T06:36:57.053Z,8.77
2022-10-20T06:41:58.771Z,10.10
2022-10-20T06:47:00.420Z,10.80
2022-10-20T06:52:02.318Z,9.20
2022-10-20T06:57:04.030Z,7.47
2022-10-20T07:02:05.748Z,7.23
2022-10-20T07:07:07.525Z,9.97
2022-10-20T07:12:09.177Z,7.75
2022-10-20T07:17:11.015Z,6.57
2022-10-20T07:22:12.685Z,8.98
2022-10-20T07:27:14.386Z,8.98
2022-10-20T07:32:16.069Z,11.68
2022-10-20T07:37:18.945Z,12.25
2022-10-20T07:42:20.805Z,10.35
2022-10-20T07:47:22.523Z,11.10
2022-10-20T07:52:24.266Z,14.35
2022-10-20T07:57:25.939Z,14.07
2022-10-20T08:02:27.643Z,14.75
2022-10-20T08:07:29.339Z,17.65
2022-10-20T08:12:31.013Z,17.10
2022-10-20T08:17:32.802Z,13.63
2022-10-20T08:22:35.655Z,12.60
2022-10-20T08:27:37.600Z,14.38
2022-10-20T08:32:39.517Z,14.60
2022-10-20T08:37:41.312Z,16.98
2022-10-20T08:42:44.422Z,18.05
2022-10-20T08:47:48.428Z,12.77
2022-10-20T08:52:54.418Z,13.60
2022-10-20T08:58:03.204Z,9.90
2022-10-20T09:03:28.953Z,8.33
2022-10-20T09:08:32.309Z,12.43
2022-10-20T09:13:34.795Z,14.68
2022-10-20T09:18:36.651Z,12.17
2022-10-20T09:23:47.593Z,14.50
2022-10-20T09:29:12.075Z,10.57
2022-10-20T09:34:31.686Z,11.45
2022-10-20T09:39:50.170Z,13.52
2022-10-20T09:45:04.569Z,12.85
2022-10-20T09:50:08.347Z,11.77
2022-10-20T09:55:28.894Z,18.02
2022-10-20T10:00:38.373Z,10.20
2022-10-20T10:05:40.611Z,12.27
2022-10-20T10:10:45.431Z,10.87
2022-10-20T10:15:47.099Z,17.73
2022-10-20T10:21:01.591Z,13.13
2022-10-20T10:26:24.280Z,11.10
2022-10-20T10:31:26.431Z,11.60
2022-10-20T10:36:34.738Z,11.35
2022-10-20T10:42:02.396Z,11.90
2022-10-20T10:47:37.834Z,11.02
2022-10-20T10:52:55.298Z,13.00
2022-10-20T10:58:08.937Z,14.45
2022-10-20T11:03:25.879Z,10.32
2022-10-20T11:08:43.078Z,12.07
2022-10-20T11:14:03.364Z,12.02
2022-10-20T11:19:20.264Z,11.90
2022-10-20T11:24:47.132Z,12.13
2022-10-20T11:30:15.281Z,12.70
2022-10-20T11:35:31.736Z,10.97
2022-10-20T11:40:39.801Z,12.18
2022-10-20T11:45:49.899Z,10.43
2022-10-20T11:51:30.065Z,12.80
2022-10-20T11:56:37.870Z,13.30
2022-10-20T12:02:03.601Z,10.57
2022-10-20T12:07:32.284Z,8.75
2022-10-20T12:12:43.318Z,14.68
2022-10-20T12:17:45.355Z,9.70
2022-10-20T12:22:49.613Z,9.13
2022-10-20T12:28:22.148Z,7.80
2022-10-20T12:33:39.119Z,9.35
2022-10-20T12:38:42.969Z,8.40
2022-10-20T12:43:50.799Z,7.70
2022-10-20T12:48:56.217Z,10.23
2022-10-20T12:54:02.539Z,8.73
2022-10-20T12:59:30.173Z,7.93
2022-10-20T13:05:01.964Z,6.60
2022-10-20T13:10:36.497Z,6.45
2022-10-20T13:15:44.221Z,8.67
2022-10-20T13:21:17.100Z,5.13
2022-10-20T13:26:29.570Z,6.65
2022-10-20T13:31:43.514Z,7.38
2022-10-20T13:37:12.858Z,7.18
2022-10-20T13:42:40.961Z,8.02
2022-10-20T13:48:26.549Z,13.02
2022-10-20T13:53:41.303Z,9.50
2022-10-20T13:59:19.980Z,7.13
2022-10-20T14:04:33.587Z,8.13
2022-10-20T14:09:35.264Z,7.13
2022-10-20T14:14:42.423Z,8.57
2022-10-20T14:19:46.095Z,10.18
2022-10-20T14:24:55.845Z,9.65
2022-10-20T14:29:58.470Z,9.35
2022-10-20T14:35:01.433Z,10.33
2022-10-20T14:40:07.079Z,9.57
2022-10-20T14:45:21.512Z,10.27
2022-10-20T14:50:30.957Z,10.43
2022-10-20T14:55:35.106Z,11.00
2022-10-20T15:00:37.414Z,9.90
2022-10-20T15:05:44.030Z,9.60
2022-10-20T15:10:45.976Z,9.50
2022-10-20T15:15:47.862Z,11.43
2022-10-20T15:20:51.046Z,11.77
2022-10-20T15:25:59.148Z,9.90
2022-10-20T15:31:02.597Z,14.40
2022-10-20T15:36:13.739Z,15.38
2022-10-20T15:41:21.239Z,11.65
2022-10-20T15:46:23.201Z,12.82
2022-10-20T15:51:30.845Z,9.45
2022-10-20T15:56:32.971Z,10.98
2022-10-20T16:01:35.186Z,20.60
2022-10-20T16:06:36.895Z,13.87
2022-10-20T16:11:38.541Z,18.50
2022-10-20T16:16:40.216Z,10.52
2022-10-20T16:21:41.893Z,12.27
2022-10-20T16:26:43.629Z,15.17
2022-10-20T16:31:45.300Z,19.33
2022-10-20T16:36:49.092Z,15.23
2022-10-20T16:41:50.799Z,17.33
2022-10-20T16:46:52.485Z,15.35
2022-10-20T16:51:54.248Z,14.95
2022-10-20T16:56:56.095Z,20.00
2022-10-20T17:01:57.777Z,17.70
2022-10-20T17:06:59.473Z,21.67
2022-10-20T17:12:01.120Z,19.05
2022-10-20T17:17:02.802Z,17.25
2022-10-20T17:22:04.557Z,24.40
2022-10-20T17:27:06.249Z,17.48
2022-10-20T17:32:07.938Z,20.13
2022-10-20T17:37:09.627Z,18.87
2022-10-20T17:42:11.314Z,20.20
2022-10-20T17:47:13.073Z,18.05
2022-10-20T17:52:14.852Z,21.17
2022-10-20T17:57:16.548Z,16.95
2022-10-20T18:02:18.210Z,17.85
2022-10-20T18:07:19.885Z,19.77
2022-10-20T18:12:21.584Z,22.87
2022-10-20T18:17:23.348Z,19.63
2022-10-20T18:22:25.057Z,17.90
2022-10-20T18:27:26.753Z,22.45
2022-10-20T18:32:28.490Z,21.83
2022-10-20T18:37:30.163Z,20.52
2022-10-20T18:42:33.008Z,20.15
2022-10-20T18:47:35.181Z,20.77
2022-10-20T18:52:37.081Z,19.95
2022-10-20T18:57:39.254Z,20.25
2022-10-20T19:02:41.467Z,22.25
2022-10-20T19:07:43.162Z,17.20
2022-10-20T19:12:44.866Z,19.00
2022-10-20T19:17:46.542Z,18.40
2022-10-20T19:22:48.222Z,20.88
2022-10-20T19:27:49.888Z,18.83
2022-10-20T19:32:51.604Z,18.50
2022-10-20T19:37:53.341Z,23.00
2022-10-20T19:42:54.988Z,19.53
2022-10-20T19:47:56.642Z,16.77
2022-10-20T19:52:58.907Z,15.55
2022-10-20T19:58:00.774Z,20.63
2022-10-20T20:03:02.598Z,18.15
2022-10-20T20:08:04.468Z,19.00
2022-10-20T20:13:06.159Z,20.37
2022-10-20T20:18:07.870Z,19.77
2022-10-20T20:23:10.005Z,19.88
2022-10-20T20:28:12.312Z,16.33
2022-10-20T20:33:14.027Z,17.05
2022-10-20T20:38:15.690Z,16.63
2022-10-20T20:43:17.755Z,19.73
2022-10-20T20:48:19.546Z,16.25
2022-10-20T20:53:21.889Z,21.98
2022-10-20T20:58:24.276Z,15.80
2022-10-20T21:03:25.976Z,17.33
2022-10-20T21:08:27.720Z,16.80
2022-10-20T21:13:32.177Z,11.48
2022-10-20T21:18:33.835Z,12.60
2022-10-20T21:23:35.496Z,14.52
2022-10-20T21:28:37.566Z,10.57
2022-10-20T21:33:40.090Z,9.67
2022-10-20T21:38:42.672Z,12.45
2022-10-20T21:43:46.615Z,11.68
2022-10-20T21:48:51.923Z,9.25
2022-10-20T21:53:58.335Z,9.23
2022-10-20T21:58:59.968Z,11.23
2022-10-20T22:04:01.890Z,12.18
2022-10-20T22:09:04.626Z,11.73
2022-10-20T22:14:06.978Z,13.13
2022-10-20T22:19:14.509Z,10.07
2022-10-20T22:24:16.945Z,10.98
2022-10-20T22:29:20.631Z,11.43
2022-10-20T22:34:22.323Z,11.53
2022-10-20T22:39:23.994Z,10.23
2022-10-20T22:44:25.672Z,9.45
2022-10-20T22:49:27.315Z,9.88
2022-10-20T22:54:28.962Z,10.98
2022-10-20T22:59:30.680Z,8.73
2022-10-20T23:04:32.345Z,11.40
2022-10-20T23:09:34.152Z,10.25
2022-10-20T23:14:35.823Z,9.27
2022-10-20T23:19:37.625Z,8.68
2022-10-20T23:24:39.300Z,9.70
2022-10-20T23:29:40.983Z,7.65
2022-10-20T23:34:42.644Z,9.00
2022-10-20T23:39:44.362Z,7.63
2022-10-20T23:44:46.019Z,8.73
2022-10-20T23:49:47.692Z,8.40
2022-10-20T23:54:49.376Z,8.48
2022-10-20T23:59:51.004Z,8.95
